sensor_id;sensor_type;location;lat;lon;timestamp;pressure;altitude;pressure_sealevel;temperature;humidity
22257;BME280;11297;42.686;23.374;2022-08-19T00:01:23;94742.97;;;27.14;44.24
22257;BME280;11297;42.686;23.374;2022-08-19T00:03:49;94726.19;;;27.13;43.80
22257;BME280;11297;42.686;23.374;2022-08-19T00:06:15;94736.84;;;26.94;44.51
22257;BME280;11297;42.686;23.374;2022-08-19T00:08:41;94742.56;;;26.93;44.54
22257;BME280;11297;42.686;23.374;2022-08-19T00:11:06;94743.75;;;26.92;44.90
22257;BME280;11297;42.686;23.374;2022-08-19T00:13:33;94747.50;;;26.94;44.73
22257;BME280;11297;42.686;23.374;2022-08-19T00:15:59;94745.13;;;26.99;45.04
22257;BME280;11297;42.686;23.374;2022-08-19T00:18:25;94748.91;;;27.02;45.64
22257;BME280;11297;42.686;23.374;2022-08-19T00:20:51;94748.50;;;27.03;44.93
22257;BME280;11297;42.686;23.374;2022-08-19T00:23:16;94750.88;;;26.98;45.36
22257;BME280;11297;42.686;23.374;2022-08-19T00:25:42;94762.25;;;27.02;44.94
22257;BME280;11297;42.686;23.374;2022-08-19T00:28:07;94749.56;;;26.83;45.85
22257;BME280;11297;42.686;23.374;2022-08-19T00:30:33;94751.22;;;26.77;45.70
22257;BME280;11297;42.686;23.374;2022-08-19T00:32:58;94764.94;;;26.76;46.19
22257;BME280;11297;42.686;23.374;2022-08-19T00:35:24;94760.09;;;26.71;46.57
22257;BME280;11297;42.686;23.374;2022-08-19T00:37:50;94762.88;;;26.64;46.74
22257;BME280;11297;42.686;23.374;2022-08-19T00:40:16;94749.94;;;26.62;46.89
22257;BME280;11297;42.686;23.374;2022-08-19T00:42:42;94750.94;;;26.49;46.77
22257;BME280;11297;42.686;23.374;2022-08-19T00:45:11;94756.44;;;26.39;47.45
22257;BME280;11297;42.686;23.374;2022-08-19T00:47:37;94746.63;;;26.32;47.13
22257;BME280;11297;42.686;23.374;2022-08-19T00:50:04;94742.34;;;26.38;47.01
22257;BME280;11297;42.686;23.374;2022-08-19T00:52:33;94751.31;;;26.48;47.30
22257;BME280;11297;42.686;23.374;2022-08-19T00:55:00;94748.34;;;26.42;47.04
22257;BME280;11297;42.686;23.374;2022-08-19T00:57:30;94747.63;;;26.42;47.14
22257;BME280;11297;42.686;23.374;2022-08-19T00:59:59;94746.56;;;26.36;47.11
22257;BME280;11297;42.686;23.374;2022-08-19T01:02:26;94754.81;;;26.45;46.62
22257;BME280;11297;42.686;23.374;2022-08-19T01:04:52;94750.84;;;26.52;46.43
22257;BME280;11297;42.686;23.374;2022-08-19T01:07:18;94750.00;;;26.59;46.64
22257;BME280;11297;42.686;23.374;2022-08-19T01:09:43;94756.00;;;26.63;46.49
22257;BME280;11297;42.686;23.374;2022-08-19T01:12:09;94743.31;;;26.70;46.39
22257;BME280;11297;42.686;23.374;2022-08-19T01:14:35;94742.88;;;26.75;45.85
22257;BME280;11297;42.686;23.374;2022-08-19T01:17:02;94752.16;;;26.90;45.33
22257;BME280;11297;42.686;23.374;2022-08-19T01:19:34;94752.78;;;26.98;45.67
22257;BME280;11297;42.686;23.374;2022-08-19T01:22:06;94756.81;;;27.05;45.68
22257;BME280;11297;42.686;23.374;2022-08-19T01:24:33;94749.44;;;27.13;45.00
22257;BME280;11297;42.686;23.374;2022-08-19T01:26:59;94744.13;;;27.13;44.97
22257;BME280;11297;42.686;23.374;2022-08-19T01:29:25;94742.97;;;27.14;45.01
22257;BME280;11297;42.686;23.374;2022-08-19T01:31:50;94739.81;;;27.19;45.12
22257;BME280;11297;42.686;23.374;2022-08-19T01:34:18;94742.75;;;27.24;45.08
22257;BME280;11297;42.686;23.374;2022-08-19T01:36:45;94740.34;;;27.30;44.73
22257;BME280;11297;42.686;23.374;2022-08-19T01:39:15;94740.50;;;27.23;44.17
22257;BME280;11297;42.686;23.374;2022-08-19T01:41:41;94742.16;;;26.94;44.94
22257;BME280;11297;42.686;23.374;2022-08-19T01:44:08;94742.28;;;26.64;45.48
22257;BME280;11297;42.686;23.374;2022-08-19T01:46:35;94734.53;;;26.24;46.96
22257;BME280;11297;42.686;23.374;2022-08-19T01:49:02;94746.06;;;25.92;47.72
22257;BME280;11297;42.686;23.374;2022-08-19T01:51:28;94746.97;;;25.48;48.65
22257;BME280;11297;42.686;23.374;2022-08-19T01:53:54;94754.34;;;25.38;49.36
22257;BME280;11297;42.686;23.374;2022-08-19T01:56:20;94755.53;;;25.33;49.55
22257;BME280;11297;42.686;23.374;2022-08-19T01:58:51;94741.75;;;25.42;49.49
22257;BME280;11297;42.686;23.374;2022-08-19T02:01:18;94753.50;;;25.44;49.01
22257;BME280;11297;42.686;23.374;2022-08-19T02:03:44;94753.81;;;25.49;49.68
22257;BME280;11297;42.686;23.374;2022-08-19T02:06:10;94758.66;;;25.58;49.49
22257;BME280;11297;42.686;23.374;2022-08-19T02:08:37;94762.03;;;25.65;49.33
22257;BME280;11297;42.686;23.374;2022-08-19T02:11:03;94754.31;;;25.74;49.30
22257;BME280;11297;42.686;23.374;2022-08-19T02:13:30;94747.25;;;25.87;48.15
22257;BME280;11297;42.686;23.374;2022-08-19T02:15:56;94750.19;;;25.96;47.82
22257;BME280;11297;42.686;23.374;2022-08-19T02:18:22;94758.41;;;26.05;47.31
22257;BME280;11297;42.686;23.374;2022-08-19T02:20:47;94742.44;;;26.05;46.99
22257;BME280;11297;42.686;23.374;2022-08-19T02:23:15;94756.81;;;26.11;47.04
22257;BME280;11297;42.686;23.374;2022-08-19T02:25:41;94756.06;;;26.10;48.12
22257;BME280;11297;42.686;23.374;2022-08-19T02:28:07;94759.22;;;25.76;48.84
22257;BME280;11297;42.686;23.374;2022-08-19T02:30:32;94757.69;;;25.45;49.41
22257;BME280;11297;42.686;23.374;2022-08-19T02:32:58;94755.78;;;25.12;50.80
22257;BME280;11297;42.686;23.374;2022-08-19T02:35:24;94766.19;;;24.93;50.81
22257;BME280;11297;42.686;23.374;2022-08-19T02:37:49;94759.84;;;24.84;51.55
22257;BME280;11297;42.686;23.374;2022-08-19T02:40:52;94760.03;;;24.63;52.13
22257;BME280;11297;42.686;23.374;2022-08-19T02:43:19;94767.66;;;24.61;51.80
22257;BME280;11297;42.686;23.374;2022-08-19T02:45:49;94756.66;;;24.59;52.03
22257;BME280;11297;42.686;23.374;2022-08-19T02:48:16;94757.78;;;24.61;52.09
22257;BME280;11297;42.686;23.374;2022-08-19T02:50:43;94761.22;;;24.58;51.94
22257;BME280;11297;42.686;23.374;2022-08-19T02:53:08;94768.59;;;24.41;52.09
22257;BME280;11297;42.686;23.374;2022-08-19T02:55:34;94766.59;;;24.52;52.53
22257;BME280;11297;42.686;23.374;2022-08-19T02:58:00;94769.97;;;24.55;51.92
22257;BME280;11297;42.686;23.374;2022-08-19T03:00:26;94766.28;;;24.43;51.94
22257;BME280;11297;42.686;23.374;2022-08-19T03:02:52;94773.16;;;24.37;52.80
22257;BME280;11297;42.686;23.374;2022-08-19T03:05:18;94769.63;;;24.50;51.95
22257;BME280;11297;42.686;23.374;2022-08-19T03:07:43;94766.09;;;24.67;52.00
22257;BME280;11297;42.686;23.374;2022-08-19T03:10:09;94767.88;;;24.77;51.61
22257;BME280;11297;42.686;23.374;2022-08-19T03:12:37;94767.00;;;24.90;50.55
22257;BME280;11297;42.686;23.374;2022-08-19T03:15:05;94761.25;;;24.95;50.71
22257;BME280;11297;42.686;23.374;2022-08-19T03:17:33;94764.34;;;24.90;50.59
22257;BME280;11297;42.686;23.374;2022-08-19T03:19:59;94755.38;;;24.77;51.16
22257;BME280;11297;42.686;23.374;2022-08-19T03:22:25;94760.03;;;24.63;51.92
22257;BME280;11297;42.686;23.374;2022-08-19T03:24:50;94737.44;;;24.45;51.84
22257;BME280;11297;42.686;23.374;2022-08-19T03:27:16;94750.72;;;24.41;52.37
22257;BME280;11297;42.686;23.374;2022-08-19T03:29:43;94765.63;;;24.28;53.32
22257;BME280;11297;42.686;23.374;2022-08-19T03:32:09;94752.69;;;24.37;52.49
22257;BME280;11297;42.686;23.374;2022-08-19T03:34:36;94764.47;;;24.33;52.83
22257;BME280;11297;42.686;23.374;2022-08-19T03:37:08;94762.81;;;24.49;51.72
22257;BME280;11297;42.686;23.374;2022-08-19T03:39:37;94769.94;;;24.59;51.78
22257;BME280;11297;42.686;23.374;2022-08-19T03:42:03;94769.50;;;24.67;50.74
22257;BME280;11297;42.686;23.374;2022-08-19T03:44:29;94775.28;;;24.55;51.51
22257;BME280;11297;42.686;23.374;2022-08-19T03:46:58;94771.94;;;24.48;52.37
22257;BME280;11297;42.686;23.374;2022-08-19T03:49:27;94774.47;;;24.62;51.24
22257;BME280;11297;42.686;23.374;2022-08-19T03:51:54;94784.38;;;24.58;52.11
22257;BME280;11297;42.686;23.374;2022-08-19T03:54:21;94783.22;;;24.62;51.41
22257;BME280;11297;42.686;23.374;2022-08-19T03:56:49;94788.16;;;24.60;51.60
22257;BME280;11297;42.686;23.374;2022-08-19T03:59:18;94788.13;;;24.64;51.93
22257;BME280;11297;42.686;23.374;2022-08-19T04:01:45;94782.69;;;24.78;51.32
22257;BME280;11297;42.686;23.374;2022-08-19T04:04:11;94798.53;;;24.88;51.60
22257;BME280;11297;42.686;23.374;2022-08-19T04:06:37;94800.47;;;24.84;51.37
22257;BME280;11297;42.686;23.374;2022-08-19T04:09:05;94800.06;;;24.86;51.45
22257;BME280;11297;42.686;23.374;2022-08-19T04:11:36;94804.56;;;24.96;51.40
22257;BME280;11297;42.686;23.374;2022-08-19T04:14:04;94804.81;;;25.11;51.44
22257;BME280;11297;42.686;23.374;2022-08-19T04:16:29;94808.97;;;25.12;51.31
22257;BME280;11297;42.686;23.374;2022-08-19T04:18:56;94812.09;;;25.04;51.32
22257;BME280;11297;42.686;23.374;2022-08-19T04:21:24;94808.03;;;24.89;51.60
22257;BME280;11297;42.686;23.374;2022-08-19T04:23:50;94812.13;;;24.97;51.50
22257;BME280;11297;42.686;23.374;2022-08-19T04:26:23;94814.66;;;25.14;50.67
22257;BME280;11297;42.686;23.374;2022-08-19T04:28:49;94810.03;;;25.22;50.91
22257;BME280;11297;42.686;23.374;2022-08-19T04:31:20;94813.50;;;25.48;50.80
22257;BME280;11297;42.686;23.374;2022-08-19T04:33:46;94810.69;;;25.62;49.72
22257;BME280;11297;42.686;23.374;2022-08-19T04:36:23;94814.59;;;25.88;49.54
22257;BME280;11297;42.686;23.374;2022-08-19T04:38:50;94814.00;;;26.03;48.94
22257;BME280;11297;42.686;23.374;2022-08-19T04:41:18;94813.28;;;25.99;48.52
22257;BME280;11297;42.686;23.374;2022-08-19T04:44:02;94802.63;;;25.99;48.84
22257;BME280;11297;42.686;23.374;2022-08-19T04:46:29;94818.22;;;26.00;49.16
22257;BME280;11297;42.686;23.374;2022-08-19T04:49:01;94806.75;;;26.03;48.91
22257;BME280;11297;42.686;23.374;2022-08-19T04:51:26;94810.06;;;26.14;48.84
22257;BME280;11297;42.686;23.374;2022-08-19T04:53:52;94801.53;;;26.23;47.84
22257;BME280;11297;42.686;23.374;2022-08-19T04:56:19;94812.63;;;26.48;47.95
22257;BME280;11297;42.686;23.374;2022-08-19T04:58:49;94812.00;;;26.63;46.64
22257;BME280;11297;42.686;23.374;2022-08-19T05:01:22;94803.66;;;26.38;46.94
22257;BME280;11297;42.686;23.374;2022-08-19T05:03:48;94816.22;;;25.78;48.18
22257;BME280;11297;42.686;23.374;2022-08-19T05:06:16;94812.34;;;25.86;48.24
22257;BME280;11297;42.686;23.374;2022-08-19T05:08:42;94817.00;;;25.79;48.90
22257;BME280;11297;42.686;23.374;2022-08-19T05:11:18;94815.50;;;25.41;49.74
22257;BME280;11297;42.686;23.374;2022-08-19T05:13:44;94818.69;;;25.62;49.52
22257;BME280;11297;42.686;23.374;2022-08-19T05:16:11;94819.16;;;25.21;50.97
22257;BME280;11297;42.686;23.374;2022-08-19T05:18:38;94823.81;;;25.10;51.96
22257;BME280;11297;42.686;23.374;2022-08-19T05:21:22;94817.91;;;25.32;51.07
22257;BME280;11297;42.686;23.374;2022-08-19T05:24:07;94821.50;;;25.48;50.98
22257;BME280;11297;42.686;23.374;2022-08-19T05:26:39;94812.09;;;25.41;51.34
22257;BME280;11297;42.686;23.374;2022-08-19T05:29:06;94812.75;;;25.48;51.12
22257;BME280;11297;42.686;23.374;2022-08-19T05:31:33;94825.81;;;25.72;50.28
22257;BME280;11297;42.686;23.374;2022-08-19T05:33:58;94817.47;;;25.70;50.28
22257;BME280;11297;42.686;23.374;2022-08-19T05:36:26;94819.00;;;25.71;50.43
22257;BME280;11297;42.686;23.374;2022-08-19T05:38:52;94819.78;;;25.68;50.25
22257;BME280;11297;42.686;23.374;2022-08-19T05:41:18;94830.44;;;25.68;50.83
22257;BME280;11297;42.686;23.374;2022-08-19T05:43:45;94827.66;;;25.79;50.20
22257;BME280;11297;42.686;23.374;2022-08-19T05:46:17;94821.28;;;25.99;49.83
22257;BME280;11297;42.686;23.374;2022-08-19T05:48:43;94824.66;;;26.03;49.12
22257;BME280;11297;42.686;23.374;2022-08-19T05:51:09;94825.72;;;26.09;49.04
22257;BME280;11297;42.686;23.374;2022-08-19T05:53:36;94825.91;;;26.25;48.40
22257;BME280;11297;42.686;23.374;2022-08-19T05:56:06;94824.84;;;26.45;48.16
22257;BME280;11297;42.686;23.374;2022-08-19T05:58:33;94820.94;;;26.76;47.61
22257;BME280;11297;42.686;23.374;2022-08-19T06:00:58;94817.78;;;27.07;47.13
22257;BME280;11297;42.686;23.374;2022-08-19T06:03:30;94818.50;;;27.30;46.19
22257;BME280;11297;42.686;23.374;2022-08-19T06:05:56;94818.59;;;27.46;45.98
22257;BME280;11297;42.686;23.374;2022-08-19T06:08:23;94815.47;;;27.51;45.96
22257;BME280;11297;42.686;23.374;2022-08-19T06:10:49;94824.03;;;27.81;45.63
22257;BME280;11297;42.686;23.374;2022-08-19T06:13:14;94825.06;;;27.87;45.34
22257;BME280;11297;42.686;23.374;2022-08-19T06:15:40;94819.38;;;27.85;45.69
22257;BME280;11297;42.686;23.374;2022-08-19T06:18:08;94820.44;;;27.88;45.88
22257;BME280;11297;42.686;23.374;2022-08-19T06:20:34;94829.28;;;28.04;45.10
22257;BME280;11297;42.686;23.374;2022-08-19T06:22:59;94829.50;;;28.13;45.09
22257;BME280;11297;42.686;23.374;2022-08-19T06:25:25;94827.00;;;28.22;45.04
22257;BME280;11297;42.686;23.374;2022-08-19T06:27:50;94826.72;;;28.51;43.81
22257;BME280;11297;42.686;23.374;2022-08-19T06:30:15;94829.75;;;28.69;43.59
22257;BME280;11297;42.686;23.374;2022-08-19T06:32:41;94823.84;;;28.93;42.67
22257;BME280;11297;42.686;23.374;2022-08-19T06:35:07;94828.41;;;29.09;42.35
22257;BME280;11297;42.686;23.374;2022-08-19T06:37:33;94829.66;;;29.20;42.39
22257;BME280;11297;42.686;23.374;2022-08-19T06:39:58;94820.56;;;29.34;42.62
22257;BME280;11297;42.686;23.374;2022-08-19T06:42:24;94821.41;;;29.31;43.27
22257;BME280;11297;42.686;23.374;2022-08-19T06:44:49;94827.31;;;29.38;42.81
22257;BME280;11297;42.686;23.374;2022-08-19T06:47:18;94825.47;;;29.63;41.25
22257;BME280;11297;42.686;23.374;2022-08-19T06:49:44;94824.00;;;29.46;41.82
22257;BME280;11297;42.686;23.374;2022-08-19T06:52:11;94825.09;;;29.77;41.11
22257;BME280;11297;42.686;23.374;2022-08-19T06:54:40;94825.94;;;30.02;41.69
22257;BME280;11297;42.686;23.374;2022-08-19T06:57:07;94826.53;;;30.35;40.59
22257;BME280;11297;42.686;23.374;2022-08-19T06:59:38;94831.44;;;30.61;39.13
22257;BME280;11297;42.686;23.374;2022-08-19T07:02:06;94826.81;;;30.86;38.98
22257;BME280;11297;42.686;23.374;2022-08-19T07:04:34;94829.94;;;30.97;38.22
22257;BME280;11297;42.686;23.374;2022-08-19T07:07:03;94840.56;;;31.00;39.12
22257;BME280;11297;42.686;23.374;2022-08-19T07:09:32;94832.06;;;31.14;37.89
22257;BME280;11297;42.686;23.374;2022-08-19T07:11:57;94834.09;;;31.10;38.95
22257;BME280;11297;42.686;23.374;2022-08-19T07:14:26;94837.59;;;31.32;39.08
22257;BME280;11297;42.686;23.374;2022-08-19T07:16:54;94824.41;;;31.59;37.84
22257;BME280;11297;42.686;23.374;2022-08-19T07:19:21;94819.97;;;31.65;37.76
22257;BME280;11297;42.686;23.374;2022-08-19T07:21:48;94832.25;;;31.53;37.61
22257;BME280;11297;42.686;23.374;2022-08-19T07:24:16;94826.88;;;31.53;37.03
22257;BME280;11297;42.686;23.374;2022-08-19T07:26:43;94834.78;;;31.48;38.05
22257;BME280;11297;42.686;23.374;2022-08-19T07:29:10;94822.53;;;31.35;38.48
22257;BME280;11297;42.686;23.374;2022-08-19T07:31:35;94822.09;;;31.36;38.19
22257;BME280;11297;42.686;23.374;2022-08-19T07:34:07;94825.97;;;31.69;38.02
22257;BME280;11297;42.686;23.374;2022-08-19T07:36:35;94819.50;;;31.87;37.42
22257;BME280;11297;42.686;23.374;2022-08-19T07:39:05;94819.97;;;32.07;36.79
22257;BME280;11297;42.686;23.374;2022-08-19T07:41:31;94815.88;;;32.24;36.14
22257;BME280;11297;42.686;23.374;2022-08-19T07:43:59;94818.59;;;32.33;36.03
22257;BME280;11297;42.686;23.374;2022-08-19T07:46:28;94809.16;;;32.29;35.72
22257;BME280;11297;42.686;23.374;2022-08-19T07:48:55;94821.31;;;32.03;36.84
22257;BME280;11297;42.686;23.374;2022-08-19T07:51:21;94818.78;;;31.87;37.08
22257;BME280;11297;42.686;23.374;2022-08-19T07:53:47;94816.03;;;31.99;36.78
22257;BME280;11297;42.686;23.374;2022-08-19T07:56:15;94820.03;;;32.16;36.07
22257;BME280;11297;42.686;23.374;2022-08-19T07:58:43;94817.19;;;32.20;36.45
22257;BME280;11297;42.686;23.374;2022-08-19T08:01:12;94815.97;;;32.12;36.43
22257;BME280;11297;42.686;23.374;2022-08-19T08:03:38;94816.72;;;32.12;35.94
22257;BME280;11297;42.686;23.374;2022-08-19T08:06:23;94817.91;;;32.11;35.89
22257;BME280;11297;42.686;23.374;2022-08-19T08:09:08;94815.56;;;32.22;35.97
22257;BME280;11297;42.686;23.374;2022-08-19T08:11:44;94815.09;;;32.15;36.39
22257;BME280;11297;42.686;23.374;2022-08-19T08:14:29;94810.31;;;32.19;35.58
22257;BME280;11297;42.686;23.374;2022-08-19T08:16:56;94805.75;;;32.28;36.19
22257;BME280;11297;42.686;23.374;2022-08-19T08:19:23;94807.22;;;32.50;36.48
22257;BME280;11297;42.686;23.374;2022-08-19T08:21:49;94801.13;;;32.68;35.07
22257;BME280;11297;42.686;23.374;2022-08-19T08:24:16;94807.09;;;32.63;35.80
22257;BME280;11297;42.686;23.374;2022-08-19T08:26:42;94800.09;;;32.74;35.82
22257;BME280;11297;42.686;23.374;2022-08-19T08:29:12;94794.66;;;33.04;34.50
22257;BME280;11297;42.686;23.374;2022-08-19T08:31:40;94801.69;;;33.29;34.33
22257;BME280;11297;42.686;23.374;2022-08-19T08:34:06;94797.97;;;33.17;34.88
22257;BME280;11297;42.686;23.374;2022-08-19T08:36:31;94790.19;;;33.37;34.55
22257;BME280;11297;42.686;23.374;2022-08-19T08:38:59;94789.59;;;33.69;34.00
22257;BME280;11297;42.686;23.374;2022-08-19T08:44:00;94786.88;;;33.86;33.85
22257;BME280;11297;42.686;23.374;2022-08-19T08:46:36;94788.53;;;33.84;32.67
22257;BME280;11297;42.686;23.374;2022-08-19T08:51:52;94784.47;;;34.06;32.21
22257;BME280;11297;42.686;23.374;2022-08-19T08:54:24;94775.19;;;33.98;33.10
22257;BME280;11297;42.686;23.374;2022-08-19T08:56:53;94778.31;;;34.06;33.36
22257;BME280;11297;42.686;23.374;2022-08-19T08:59:26;94778.84;;;34.28;32.60
22257;BME280;11297;42.686;23.374;2022-08-19T09:01:53;94767.81;;;34.49;31.92
22257;BME280;11297;42.686;23.374;2022-08-19T09:04:19;94769.41;;;34.64;31.01
22257;BME280;11297;42.686;23.374;2022-08-19T09:09:50;94761.72;;;34.72;31.25
22257;BME280;11297;42.686;23.374;2022-08-19T09:12:38;94762.19;;;35.17;31.40
22257;BME280;11297;42.686;23.374;2022-08-19T09:15:10;94761.31;;;35.34;30.35
22257;BME280;11297;42.686;23.374;2022-08-19T09:17:36;94770.00;;;35.38;29.99
22257;BME280;11297;42.686;23.374;2022-08-19T09:22:39;94760.81;;;35.44;29.25
22257;BME280;11297;42.686;23.374;2022-08-19T09:25:08;94744.41;;;35.77;29.62
22257;BME280;11297;42.686;23.374;2022-08-19T09:27:36;94743.88;;;35.87;29.01
22257;BME280;11297;42.686;23.374;2022-08-19T09:30:03;94737.34;;;35.93;27.61
22257;BME280;11297;42.686;23.374;2022-08-19T09:32:30;94744.25;;;35.94;28.41
22257;BME280;11297;42.686;23.374;2022-08-19T09:34:55;94737.91;;;36.12;27.74
22257;BME280;11297;42.686;23.374;2022-08-19T09:37:24;94727.91;;;36.18;28.94
22257;BME280;11297;42.686;23.374;2022-08-19T09:39:50;94736.13;;;36.09;27.41
22257;BME280;11297;42.686;23.374;2022-08-19T09:42:16;94734.50;;;36.17;27.89
22257;BME280;11297;42.686;23.374;2022-08-19T09:44:42;94727.81;;;36.12;26.90
22257;BME280;11297;42.686;23.374;2022-08-19T09:47:09;94729.69;;;36.06;27.37
22257;BME280;11297;42.686;23.374;2022-08-19T09:49:35;94733.00;;;36.16;27.12
22257;BME280;11297;42.686;23.374;2022-08-19T09:52:00;94727.06;;;36.12;25.38
22257;BME280;11297;42.686;23.374;2022-08-19T09:54:26;94722.75;;;35.77;25.58
22257;BME280;11297;42.686;23.374;2022-08-19T09:56:53;94712.31;;;35.55;26.98
22257;BME280;11297;42.686;23.374;2022-08-19T09:59:18;94715.34;;;35.34;26.57
22257;BME280;11297;42.686;23.374;2022-08-19T10:01:44;94712.41;;;35.23;26.71
22257;BME280;11297;42.686;23.374;2022-08-19T10:04:09;94714.97;;;35.27;26.73
22257;BME280;11297;42.686;23.374;2022-08-19T10:06:37;94706.72;;;35.44;25.94
22257;BME280;11297;42.686;23.374;2022-08-19T10:09:04;94707.66;;;35.56;26.41
22257;BME280;11297;42.686;23.374;2022-08-19T10:11:32;94709.69;;;35.75;26.64
22257;BME280;11297;42.686;23.374;2022-08-19T10:13:58;94704.69;;;35.83;27.62
22257;BME280;11297;42.686;23.374;2022-08-19T10:16:25;94705.41;;;35.97;26.72
22257;BME280;11297;42.686;23.374;2022-08-19T10:18:51;94693.75;;;35.91;27.03
22257;BME280;11297;42.686;23.374;2022-08-19T10:21:31;94699.75;;;35.95;26.52
22257;BME280;11297;42.686;23.374;2022-08-19T10:23:59;94695.72;;;35.91;26.46
22257;BME280;11297;42.686;23.374;2022-08-19T10:26:37;94702.81;;;36.03;26.35
22257;BME280;11297;42.686;23.374;2022-08-19T10:29:03;94693.84;;;35.97;26.25
22257;BME280;11297;42.686;23.374;2022-08-19T10:31:31;94693.81;;;36.11;26.61
22257;BME280;11297;42.686;23.374;2022-08-19T10:33:59;94676.69;;;36.00;25.90
22257;BME280;11297;42.686;23.374;2022-08-19T10:36:28;94685.44;;;35.95;26.67
22257;BME280;11297;42.686;23.374;2022-08-19T10:38:56;94681.81;;;35.69;26.89
22257;BME280;11297;42.686;23.374;2022-08-19T10:41:26;94679.47;;;35.62;26.26
22257;BME280;11297;42.686;23.374;2022-08-19T10:43:58;94682.06;;;35.71;27.13
22257;BME280;11297;42.686;23.374;2022-08-19T10:46:26;94683.84;;;35.74;26.98
22257;BME280;11297;42.686;23.374;2022-08-19T10:48:52;94677.78;;;35.79;26.68
22257;BME280;11297;42.686;23.374;2022-08-19T10:51:19;94679.75;;;35.79;27.25
22257;BME280;11297;42.686;23.374;2022-08-19T10:54:03;94674.19;;;35.82;26.54
22257;BME280;11297;42.686;23.374;2022-08-19T10:56:30;94680.34;;;35.83;27.04
22257;BME280;11297;42.686;23.374;2022-08-19T10:59:15;94670.25;;;35.83;27.77
22257;BME280;11297;42.686;23.374;2022-08-19T11:01:42;94664.56;;;35.81;27.21
22257;BME280;11297;42.686;23.374;2022-08-19T11:04:08;94668.09;;;35.73;27.60
22257;BME280;11297;42.686;23.374;2022-08-19T11:06:37;94664.56;;;35.81;27.10
22257;BME280;11297;42.686;23.374;2022-08-19T11:09:04;94660.53;;;35.77;26.96
22257;BME280;11297;42.686;23.374;2022-08-19T11:11:30;94667.81;;;35.71;27.04
22257;BME280;11297;42.686;23.374;2022-08-19T11:13:57;94664.09;;;35.54;26.96
22257;BME280;11297;42.686;23.374;2022-08-19T11:16:25;94658.41;;;35.37;27.52
22257;BME280;11297;42.686;23.374;2022-08-19T11:18:54;94663.09;;;35.37;27.27
22257;BME280;11297;42.686;23.374;2022-08-19T11:21:32;94659.47;;;35.17;28.46
22257;BME280;11297;42.686;23.374;2022-08-19T11:24:00;94664.78;;;35.11;28.36
22257;BME280;11297;42.686;23.374;2022-08-19T11:26:29;94653.63;;;35.18;28.53
22257;BME280;11297;42.686;23.374;2022-08-19T11:28:56;94662.09;;;35.26;28.18
22257;BME280;11297;42.686;23.374;2022-08-19T11:31:25;94651.84;;;35.15;27.92
22257;BME280;11297;42.686;23.374;2022-08-19T11:33:51;94655.38;;;35.21;28.03
22257;BME280;11297;42.686;23.374;2022-08-19T11:36:18;94643.25;;;35.17;28.12
22257;BME280;11297;42.686;23.374;2022-08-19T11:38:45;94644.84;;;35.09;28.45
22257;BME280;11297;42.686;23.374;2022-08-19T11:41:11;94644.53;;;34.92;28.54
22257;BME280;11297;42.686;23.374;2022-08-19T11:43:36;94637.09;;;35.02;28.04
22257;BME280;11297;42.686;23.374;2022-08-19T11:46:09;94636.25;;;34.96;28.32
22257;BME280;11297;42.686;23.374;2022-08-19T11:48:36;94638.78;;;34.76;28.91
22257;BME280;11297;42.686;23.374;2022-08-19T11:51:11;94633.47;;;34.82;28.63
22257;BME280;11297;42.686;23.374;2022-08-19T11:53:37;94630.03;;;34.81;29.07
22257;BME280;11297;42.686;23.374;2022-08-19T11:56:04;94625.09;;;34.80;29.72
22257;BME280;11297;42.686;23.374;2022-08-19T11:58:29;94626.41;;;34.84;29.30
22257;BME280;11297;42.686;23.374;2022-08-19T12:00:55;94627.16;;;34.84;29.33
22257;BME280;11297;42.686;23.374;2022-08-19T12:03:21;94615.56;;;34.93;28.44
22257;BME280;11297;42.686;23.374;2022-08-19T12:05:47;94613.03;;;35.04;28.20
22257;BME280;11297;42.686;23.374;2022-08-19T12:08:12;94621.72;;;35.08;28.60
22257;BME280;11297;42.686;23.374;2022-08-19T12:10:39;94614.44;;;34.99;27.98
22257;BME280;11297;42.686;23.374;2022-08-19T12:13:06;94619.03;;;34.84;28.18
22257;BME280;11297;42.686;23.374;2022-08-19T12:15:39;94607.22;;;34.82;28.30
22257;BME280;11297;42.686;23.374;2022-08-19T12:18:09;94603.72;;;34.90;28.41
22257;BME280;11297;42.686;23.374;2022-08-19T12:20:37;94597.22;;;34.97;28.15
22257;BME280;11297;42.686;23.374;2022-08-19T12:23:04;94589.75;;;34.92;27.82
22257;BME280;11297;42.686;23.374;2022-08-19T12:25:29;94582.09;;;34.90;28.37
22257;BME280;11297;42.686;23.374;2022-08-19T12:27:56;94580.28;;;34.73;28.78
22257;BME280;11297;42.686;23.374;2022-08-19T12:30:21;94584.34;;;34.92;28.59
22257;BME280;11297;42.686;23.374;2022-08-19T12:32:46;94584.97;;;34.87;28.94
22257;BME280;11297;42.686;23.374;2022-08-19T12:35:12;94583.47;;;34.86;28.25
22257;BME280;11297;42.686;23.374;2022-08-19T12:37:38;94584.47;;;34.74;28.97
22257;BME280;11297;42.686;23.374;2022-08-19T12:40:05;94579.53;;;34.73;28.20
22257;BME280;11297;42.686;23.374;2022-08-19T12:42:30;94576.59;;;34.85;28.19
22257;BME280;11297;42.686;23.374;2022-08-19T12:44:56;94571.06;;;34.80;28.87
22257;BME280;11297;42.686;23.374;2022-08-19T12:47:21;94571.88;;;34.71;28.80
22257;BME280;11297;42.686;23.374;2022-08-19T12:49:48;94570.09;;;34.54;28.78
22257;BME280;11297;42.686;23.374;2022-08-19T12:52:14;94572.78;;;34.31;29.84
22257;BME280;11297;42.686;23.374;2022-08-19T12:54:41;94570.19;;;34.59;28.73
22257;BME280;11297;42.686;23.374;2022-08-19T12:57:08;94564.34;;;34.75;28.57
22257;BME280;11297;42.686;23.374;2022-08-19T12:59:35;94565.28;;;34.72;29.86
22257;BME280;11297;42.686;23.374;2022-08-19T13:02:06;94574.13;;;34.58;29.89
22257;BME280;11297;42.686;23.374;2022-08-19T13:04:33;94565.94;;;34.67;28.79